LEST/SCQ METAR and TAF weather

Enter ICAO airport designator
Station Type Date Time Source
LEST METAR 2021/08/02 03:00 UTC NOAA

LEST 020300Z VRB02KT 9999 SCT042 14/12 Q1017 TEMPO 3000 BR


Station Type Date Time Source
LEST Decoded METAR 2021/08/02 03:00 UTC NOAA

Santiago / Labacolla, Spain (LEST) 42-54N 008-26W 367M
Aug 01, 2021 - 11:00 PM EDT / 2021.08.02 0300 UTC
Wind: Variable at 2 MPH (2 KT):0
Visibility: greater than 7 mile(s):0
Sky conditions: partly cloudy
Temperature: 57 F (14 C)
Dew Point: 53 F (12 C)
Relative Humidity: 87%
Pressure (altimeter): 30.03 in. Hg (1017 hPa)
ob: LEST 020300Z VRB02KT 9999 SCT042 14/12 Q1017 TEMPO 3000 BR
cycle: 3

Station Type Date Time Source
LEST TAF 2021/08/01 19:57 UTC NOAA

TAF
AMD TAF
AMD LEST 011950Z 0119/0218 01007KT 8000 SCT006 BKN016 TX22/0212Z TN11/0206Z
TEMPO 0119/0208 3000 -DZ BR BKN005 BKN010 SCT035TCU PROB40
TEMPO 0119/0124 1500 -RA BCFG BKN002 PROB40
TEMPO 0200/0207 1500 BCFG BKN002 PROB30
TEMPO 0200/0207 0500 FG BKN001

Example: see airport list